createdAt,value
2022-12-23T00:00:22.187Z,87915.00
2022-12-23T00:01:22.176Z,87907.00
2022-12-23T00:02:22.265Z,87904.00
2022-12-23T00:03:22.262Z,87907.00
2022-12-23T00:04:22.183Z,87902.00
2022-12-23T00:05:22.089Z,87898.00
2022-12-23T00:06:22.085Z,87894.00
2022-12-23T00:07:22.064Z,87898.00
2022-12-23T00:08:22.069Z,87898.00
2022-12-23T00:09:22.033Z,87902.00
2022-12-23T00:10:22.018Z,87904.00
2022-12-23T00:11:22.001Z,87900.00
2022-12-23T00:12:21.995Z,87896.00
2022-12-23T00:13:21.962Z,87896.00
2022-12-23T00:14:22.246Z,87892.00
2022-12-23T00:15:21.944Z,87888.00
2022-12-23T00:16:21.982Z,87888.00
2022-12-23T00:17:23.091Z,87884.00
2022-12-23T00:18:21.889Z,87882.00
2022-12-23T00:19:21.882Z,87876.00
2022-12-23T00:20:21.858Z,87874.00
2022-12-23T00:21:21.859Z,87878.00
2022-12-23T00:22:21.844Z,87872.00
2022-12-23T00:23:21.805Z,87874.00
2022-12-23T00:24:21.794Z,87872.00
2022-12-23T00:25:21.776Z,87872.00
2022-12-23T00:26:21.777Z,87870.00
2022-12-23T00:27:21.753Z,87864.00
2022-12-23T00:28:21.742Z,87862.00
2022-12-23T00:29:21.732Z,87860.00
2022-12-23T00:30:21.685Z,87860.00
2022-12-23T00:31:21.714Z,87858.00
2022-12-23T00:32:21.669Z,87860.00
2022-12-23T00:33:21.655Z,87862.00
2022-12-23T00:34:21.626Z,87866.00
2022-12-23T00:35:21.594Z,87866.00
2022-12-23T00:36:21.651Z,87870.00
2022-12-23T00:37:21.576Z,87872.00
2022-12-23T00:38:21.666Z,87870.00
2022-12-23T00:39:21.535Z,87874.00
2022-12-23T00:40:21.528Z,87876.00
2022-12-23T00:41:21.512Z,87878.00
2022-12-23T00:42:21.508Z,87874.00
2022-12-23T00:43:21.461Z,87876.00
2022-12-23T00:44:21.460Z,87876.00
2022-12-23T00:45:21.425Z,87880.00
2022-12-23T00:46:21.449Z,87880.00
2022-12-23T00:47:21.398Z,87890.00
2022-12-23T00:48:21.357Z,87888.00
2022-12-23T00:49:21.337Z,87892.00
2022-12-23T00:50:21.339Z,87890.00
2022-12-23T00:51:21.309Z,87900.00
2022-12-23T00:53:21.287Z,87902.00
2022-12-23T00:59:21.180Z,87907.00
2022-12-23T01:00:21.168Z,87906.00
2022-12-23T01:01:21.285Z,87906.00
2022-12-23T01:02:21.287Z,87907.00
2022-12-23T01:03:21.175Z,87911.00
2022-12-23T01:04:21.111Z,87913.00
2022-12-23T01:05:21.108Z,87906.00
2022-12-23T01:06:21.105Z,87904.00
2022-12-23T01:07:21.088Z,87902.00
2022-12-23T01:08:21.058Z,87890.00
2022-12-23T01:09:21.026Z,87900.00
2022-12-23T01:10:21.030Z,87898.00
2022-12-23T01:11:20.997Z,87898.00
2022-12-23T01:12:20.984Z,87898.00
2022-12-23T01:13:20.950Z,87896.00
2022-12-23T01:14:20.962Z,87900.00
2022-12-23T01:15:20.931Z,87906.00
2022-12-23T01:16:20.967Z,87898.00
2022-12-23T01:17:20.946Z,87900.00
2022-12-23T01:18:20.886Z,87894.00
2022-12-23T01:19:20.825Z,87892.00
2022-12-23T01:20:20.816Z,87886.00
2022-12-23T01:21:20.789Z,87894.00
2022-12-23T01:22:20.801Z,87890.00
2022-12-23T01:23:20.780Z,87886.00
2022-12-23T01:24:20.756Z,87890.00
2022-12-23T01:25:20.725Z,87880.00
2022-12-23T01:26:20.716Z,87874.00
2022-12-23T01:27:20.679Z,87874.00
2022-12-23T01:28:20.693Z,87872.00
2022-12-23T01:29:20.667Z,87868.00
2022-12-23T01:30:20.641Z,87880.00
2022-12-23T01:31:20.651Z,87886.00
2022-12-23T01:32:20.657Z,87888.00
2022-12-23T01:33:20.610Z,87892.00
2022-12-23T01:34:20.583Z,87888.00
2022-12-23T01:35:20.544Z,87884.00
2022-12-23T01:36:20.543Z,87882.00
2022-12-23T01:37:20.501Z,87872.00
2022-12-23T01:38:20.489Z,87878.00
2022-12-23T01:39:20.462Z,87880.00
2022-12-23T01:40:20.491Z,87882.00
2022-12-23T01:41:20.436Z,87884.00
2022-12-23T01:42:20.420Z,87884.00
2022-12-23T01:43:20.399Z,87878.00
2022-12-23T01:44:20.384Z,87872.00
2022-12-23T01:45:20.436Z,87864.00
2022-12-23T01:46:20.408Z,87866.00
2022-12-23T01:47:20.318Z,87864.00
2022-12-23T01:48:20.313Z,87860.00
2022-12-23T01:49:20.281Z,87866.00
2022-12-23T01:50:20.267Z,87862.00
2022-12-23T01:51:20.251Z,87874.00
2022-12-23T01:52:20.248Z,87870.00
2022-12-23T01:53:20.219Z,87868.00
2022-12-23T01:54:20.179Z,87864.00
2022-12-23T01:55:20.161Z,87854.00
2022-12-23T01:56:20.149Z,87858.00
2022-12-23T01:57:20.125Z,87858.00
2022-12-23T01:58:20.115Z,87858.00
2022-12-23T07:00:15.495Z,88011.00
2022-12-23T07:01:15.604Z,88013.00
2022-12-23T07:02:15.712Z,88013.00
2022-12-23T07:03:15.655Z,88009.00
2022-12-23T07:04:15.482Z,88011.00
2022-12-23T07:05:15.537Z,88011.00
2022-12-23T07:06:15.503Z,88013.00
2022-12-23T07:22:15.301Z,87999.00
2022-12-23T09:13:19.989Z,88028.00
2022-12-23T09:14:14.577Z,88026.00
2022-12-23T09:15:13.477Z,88022.00
2022-12-23T09:16:14.033Z,88028.00
2022-12-23T09:17:13.982Z,88030.00
2022-12-23T09:18:13.405Z,88032.00
2022-12-23T09:19:13.380Z,88032.00
2022-12-23T09:20:13.370Z,88034.00
2022-12-23T09:21:13.287Z,88036.00
2022-12-23T09:22:13.287Z,88038.00
2022-12-23T09:23:13.212Z,88034.00
2022-12-23T09:24:13.200Z,88034.00
2022-12-23T09:25:13.192Z,88034.00
2022-12-23T09:26:13.133Z,88034.00
2022-12-23T09:27:13.125Z,88038.00
2022-12-23T09:28:13.119Z,88040.00
2022-12-23T09:29:13.054Z,88046.00
2022-12-23T09:30:13.074Z,88048.00
2022-12-23T09:31:13.032Z,88046.00
2022-12-23T09:32:12.966Z,88046.00
2022-12-23T09:33:12.934Z,88046.00
2022-12-23T09:34:12.914Z,88062.00
2022-12-23T09:35:12.884Z,88048.00
2022-12-23T09:36:12.880Z,88052.00
2022-12-23T09:37:12.842Z,88050.00
2022-12-23T09:38:12.849Z,88050.00
2022-12-23T09:39:12.775Z,88044.00
2022-12-23T09:40:12.780Z,88040.00
2022-12-23T09:41:12.754Z,88040.00
2022-12-23T09:42:12.706Z,88042.00
2022-12-23T09:43:12.703Z,88044.00
2022-12-23T09:44:12.661Z,88044.00
2022-12-23T09:45:12.652Z,88042.00
2022-12-23T09:46:12.665Z,88038.00
2022-12-23T09:47:12.594Z,88036.00
2022-12-23T09:48:12.567Z,88034.00
2022-12-23T09:49:12.592Z,88034.00
2022-12-23T09:50:12.539Z,88038.00
2022-12-23T09:51:12.480Z,88034.00
2022-12-23T09:52:12.461Z,88036.00
2022-12-23T09:53:12.420Z,88042.00
2022-12-23T09:54:16.812Z,88036.00
2022-12-23T09:56:12.416Z,88024.00
2022-12-23T09:57:12.294Z,88026.00
2022-12-23T09:58:12.241Z,88028.00
2022-12-23T09:59:12.219Z,88026.00
2022-12-23T10:00:12.249Z,88030.00
2022-12-23T10:01:12.200Z,88032.00
2022-12-23T10:02:12.221Z,88034.00
2022-12-23T10:03:12.316Z,88036.00
2022-12-23T10:04:12.068Z,88040.00
2022-12-23T10:05:12.022Z,88040.00
2022-12-23T10:06:11.946Z,88040.00
2022-12-23T10:07:11.935Z,88042.00
2022-12-23T10:08:11.875Z,88038.00
2022-12-23T10:09:11.822Z,88040.00
2022-12-23T10:10:11.791Z,88036.00
2022-12-23T10:11:11.758Z,88034.00
2022-12-23T10:12:11.706Z,88036.00
2022-12-23T10:13:11.729Z,88036.00
2022-12-23T10:14:11.658Z,88036.00
2022-12-23T10:15:11.625Z,88028.00
2022-12-23T10:16:11.643Z,88028.00
2022-12-23T10:17:11.531Z,88034.00
2022-12-23T10:18:11.563Z,88034.00
2022-12-23T10:19:11.443Z,88036.00
2022-12-23T10:20:11.411Z,88036.00
2022-12-23T10:21:11.413Z,88034.00
2022-12-23T10:22:11.369Z,88032.00
2022-12-23T10:23:11.319Z,88036.00
2022-12-23T10:24:11.270Z,88038.00
2022-12-23T10:25:11.237Z,88034.00
2022-12-23T10:26:11.229Z,88032.00
2022-12-23T10:27:11.180Z,88036.00
2022-12-23T10:28:11.148Z,88036.00
2022-12-23T10:30:41.405Z,88030.00
2022-12-23T10:32:11.069Z,88028.00
2022-12-23T10:33:10.918Z,88026.00
2022-12-23T10:49:10.232Z,88013.00
2022-12-23T10:50:10.194Z,88013.00
2022-12-23T10:51:10.175Z,88009.00
2022-12-23T10:52:10.144Z,88003.00
2022-12-23T13:32:03.920Z,87825.00
2022-12-23T13:33:03.904Z,87831.00
2022-12-23T14:50:01.216Z,87854.00
2022-12-23T14:56:00.997Z,87852.00
2022-12-23T14:59:00.900Z,87856.00
2022-12-23T15:06:00.739Z,87854.00
2022-12-23T15:07:00.690Z,87851.00
2022-12-23T15:08:00.657Z,87851.00
2022-12-23T15:09:00.644Z,87847.00
2022-12-23T15:10:01.514Z,87843.00
2022-12-23T15:11:00.592Z,87843.00
2022-12-23T15:12:00.567Z,87847.00
2022-12-23T15:13:00.550Z,87849.00
2022-12-23T15:14:00.543Z,87851.00
2022-12-23T15:15:00.534Z,87852.00
2022-12-23T15:16:02.119Z,87854.00
2022-12-23T15:17:00.481Z,87854.00
2022-12-23T15:18:00.455Z,87858.00
2022-12-23T15:19:00.431Z,87862.00
2022-12-23T15:20:00.432Z,87862.00
2022-12-23T15:21:00.389Z,87868.00
2022-12-23T15:22:10.423Z,87866.00
2022-12-23T15:23:01.366Z,87866.00
2022-12-23T15:24:00.306Z,87866.00
2022-12-23T15:25:00.281Z,87862.00
2022-12-23T15:26:00.243Z,87858.00
2022-12-23T15:27:29.792Z,87860.00
2022-12-23T15:28:02.321Z,87864.00
2022-12-23T15:29:00.177Z,87866.00
2022-12-23T15:30:00.176Z,87866.00
2022-12-23T15:31:00.991Z,87868.00
2022-12-23T20:06:54.733Z,87987.00
2022-12-23T20:07:54.745Z,87989.00
2022-12-23T20:09:00.121Z,87995.00
2022-12-23T20:09:55.682Z,87999.00
2022-12-23T20:10:54.649Z,88001.00
2022-12-23T20:11:54.635Z,88001.00
2022-12-23T20:12:54.617Z,88005.00
2022-12-23T20:13:54.623Z,88009.00
2022-12-23T20:14:54.576Z,88014.00
2022-12-23T20:15:54.618Z,88013.00
2022-12-23T20:17:54.541Z,88011.00
2022-12-23T20:19:54.512Z,88013.00
2022-12-23T20:20:54.475Z,88016.00
2022-12-23T20:21:54.467Z,88016.00
2022-12-23T20:22:54.446Z,88016.00
2022-12-23T20:23:54.437Z,88016.00
2022-12-23T20:24:54.431Z,88018.00
2022-12-23T20:25:54.397Z,88016.00
2022-12-23T20:26:54.406Z,88014.00
2022-12-23T20:27:54.390Z,88014.00
2022-12-23T20:28:54.382Z,88014.00
2022-12-23T20:29:54.359Z,88016.00
2022-12-23T20:30:54.470Z,88013.00
2022-12-23T20:31:54.339Z,88011.00
2022-12-23T20:32:54.318Z,88011.00
2022-12-23T20:33:54.311Z,88011.00
2022-12-23T20:34:54.295Z,88009.00
2022-12-23T20:35:54.260Z,88009.00
2022-12-23T20:36:54.259Z,88011.00
2022-12-23T20:37:54.264Z,88007.00
2022-12-23T20:38:54.261Z,88007.00
2022-12-23T20:39:54.231Z,88009.00
2022-12-23T20:40:54.253Z,88013.00
2022-12-23T20:41:54.192Z,88018.00
2022-12-23T20:42:54.191Z,88022.00
2022-12-23T20:44:23.830Z,88026.00
2022-12-23T20:44:55.149Z,88032.00
2022-12-23T20:45:54.142Z,88030.00
2022-12-23T20:46:54.181Z,88030.00
2022-12-23T20:47:54.103Z,88032.00
2022-12-23T20:48:54.088Z,88034.00
2022-12-23T20:49:54.087Z,88034.00
2022-12-23T20:50:54.047Z,88034.00
2022-12-23T20:51:54.042Z,88034.00
2022-12-23T20:52:54.025Z,88036.00
2022-12-23T20:53:54.027Z,88034.00
2022-12-23T20:54:54.006Z,88034.00
2022-12-23T20:55:53.965Z,88030.00
2022-12-23T20:56:53.990Z,88026.00
2022-12-23T20:57:53.943Z,88030.00
2022-12-23T20:58:53.920Z,88030.00
2022-12-23T20:59:53.956Z,88032.00
2022-12-23T21:00:53.896Z,88032.00
2022-12-23T21:01:53.947Z,88032.00
2022-12-23T21:02:53.900Z,88036.00
2022-12-23T21:03:53.836Z,88032.00
2022-12-23T21:04:53.833Z,88030.00
2022-12-23T21:05:53.792Z,88028.00
2022-12-23T21:06:53.803Z,88024.00
2022-12-23T21:07:53.753Z,88020.00
2022-12-23T21:08:53.747Z,88016.00
2022-12-23T21:09:53.733Z,88016.00
2022-12-23T21:10:53.693Z,88018.00
2022-12-23T21:11:53.684Z,88018.00
2022-12-23T21:12:53.659Z,88020.00
2022-12-23T21:13:53.645Z,88020.00
2022-12-23T21:14:53.640Z,88022.00
2022-12-23T21:15:53.696Z,88022.00
2022-12-23T21:16:53.593Z,88022.00
2022-12-23T21:17:53.597Z,88022.00
2022-12-23T21:18:53.568Z,88020.00
2022-12-23T21:19:53.546Z,88016.00
2022-12-23T21:20:53.531Z,88016.00
2022-12-23T21:21:53.526Z,88013.00
2022-12-23T21:22:53.506Z,88007.00
2022-12-23T21:23:53.476Z,88013.00
2022-12-23T21:24:53.462Z,88005.00
2022-12-23T21:25:53.466Z,88009.00
2022-12-23T21:26:56.478Z,88005.00
2022-12-23T21:27:53.418Z,88003.00
2022-12-23T21:28:53.396Z,88003.00
2022-12-23T21:29:53.389Z,88007.00
2022-12-23T21:30:53.494Z,88009.00
2022-12-23T21:31:53.403Z,88009.00
2022-12-23T21:32:53.341Z,88009.00
2022-12-23T21:33:53.311Z,88007.00
2022-12-23T21:34:53.312Z,88013.00
2022-12-23T21:35:53.312Z,88018.00
2022-12-23T21:36:53.352Z,88026.00
2022-12-23T21:37:53.263Z,88034.00
2022-12-23T21:38:53.237Z,88040.00
2022-12-23T21:39:53.228Z,88044.00
2022-12-23T21:40:53.240Z,88046.00
2022-12-23T21:41:53.191Z,88050.00
2022-12-23T21:42:53.176Z,88056.00
2022-12-23T21:43:53.156Z,88054.00
2022-12-23T21:44:53.153Z,88056.00
2022-12-23T21:45:53.124Z,88058.00
2022-12-23T21:46:53.185Z,88060.00
2022-12-23T21:47:53.084Z,88060.00
2022-12-23T21:48:53.076Z,88064.00
2022-12-23T21:49:53.040Z,88068.00
2022-12-23T21:50:53.026Z,88068.00
2022-12-23T21:51:53.002Z,88068.00
2022-12-23T21:52:52.980Z,88069.00
2022-12-23T21:53:52.956Z,88069.00
2022-12-23T21:54:52.935Z,88071.00
2022-12-23T21:55:52.917Z,88081.00
2022-12-23T21:56:52.894Z,88087.00
2022-12-23T21:57:52.889Z,88091.00
2022-12-23T21:58:52.879Z,88093.00
2022-12-23T21:59:52.844Z,88097.00
2022-12-23T22:00:52.888Z,88101.00
2022-12-23T22:01:52.870Z,88107.00
2022-12-23T22:02:52.795Z,88107.00
2022-12-23T22:03:52.771Z,88105.00
2022-12-23T22:04:52.774Z,88103.00
2022-12-23T22:05:52.748Z,88101.00
2022-12-23T22:06:52.734Z,88103.00
2022-12-23T22:07:52.688Z,88107.00
2022-12-23T22:08:52.697Z,88113.00
2022-12-23T22:09:52.663Z,88115.00
2022-12-23T22:10:52.667Z,88117.00
2022-12-23T22:11:52.623Z,88115.00
2022-12-23T22:12:52.623Z,88115.00
2022-12-23T22:13:52.585Z,88111.00
2022-12-23T22:14:52.560Z,88111.00
2022-12-23T22:15:52.595Z,88111.00
2022-12-23T22:16:52.615Z,88117.00
2022-12-23T22:17:52.518Z,88119.00
2022-12-23T22:18:52.496Z,88117.00
2022-12-23T22:19:52.486Z,88119.00
2022-12-23T22:20:52.465Z,88119.00
2022-12-23T22:21:52.439Z,88123.00
2022-12-23T22:22:52.393Z,88124.00
2022-12-23T22:23:52.377Z,88124.00
2022-12-23T22:24:52.392Z,88126.00
2022-12-23T22:25:52.351Z,88124.00
2022-12-23T22:26:52.310Z,88124.00
2022-12-23T22:27:52.291Z,88121.00
2022-12-23T22:28:52.287Z,88119.00
2022-12-23T22:29:52.248Z,88113.00
2022-12-23T22:30:52.236Z,88109.00
2022-12-23T22:31:52.340Z,88103.00
2022-12-23T22:32:52.173Z,88107.00
2022-12-23T22:33:52.148Z,88107.00
2022-12-23T22:34:52.125Z,88111.00
2022-12-23T22:35:52.108Z,88113.00
2022-12-23T22:36:52.276Z,88115.00
2022-12-23T22:37:52.059Z,88115.00
2022-12-23T22:38:52.044Z,88115.00
2022-12-23T22:39:52.010Z,88121.00
2022-12-23T22:40:51.997Z,88124.00
2022-12-23T22:41:52.016Z,88121.00
2022-12-23T22:42:51.950Z,88115.00
2022-12-23T22:43:51.950Z,88111.00
2022-12-23T22:44:51.898Z,88109.00
2022-12-23T22:45:51.974Z,88109.00
2022-12-23T22:46:51.891Z,88109.00
2022-12-23T22:47:51.839Z,88113.00
2022-12-23T22:48:51.824Z,88111.00
2022-12-23T22:49:51.799Z,88103.00
2022-12-23T22:50:51.767Z,88089.00
2022-12-23T22:51:51.788Z,88083.00
2022-12-23T22:52:51.743Z,88079.00
2022-12-23T22:53:51.710Z,88075.00
2022-12-23T22:54:51.712Z,88071.00
2022-12-23T22:55:51.671Z,88071.00
2022-12-23T22:56:51.674Z,88073.00
2022-12-23T22:57:51.678Z,88077.00
2022-12-23T22:58:51.658Z,88081.00
2022-12-23T22:59:51.603Z,88087.00
2022-12-23T23:00:51.591Z,88089.00
2022-12-23T23:01:51.645Z,88091.00
2022-12-23T23:02:51.557Z,88089.00
2022-12-23T23:03:51.526Z,88085.00
2022-12-23T23:04:51.554Z,88081.00
2022-12-23T23:05:51.534Z,88077.00
2022-12-23T23:06:51.478Z,88071.00
2022-12-23T23:07:51.448Z,88062.00
2022-12-23T23:08:51.436Z,88052.00
2022-12-23T23:09:51.425Z,88044.00
2022-12-23T23:10:51.412Z,88044.00
2022-12-23T23:11:51.410Z,88044.00
2022-12-23T23:12:51.420Z,88044.00
2022-12-23T23:13:51.381Z,88042.00
2022-12-23T23:14:51.358Z,88048.00
2022-12-23T23:15:51.363Z,88048.00
2022-12-23T23:16:51.408Z,88044.00
2022-12-23T23:17:51.355Z,88044.00
2022-12-23T23:18:51.336Z,88046.00
2022-12-23T23:19:51.305Z,88052.00
2022-12-23T23:20:51.313Z,88058.00
2022-12-23T23:21:51.308Z,88058.00
2022-12-23T23:22:51.318Z,88056.00
2022-12-23T23:23:51.275Z,88058.00
2022-12-23T23:24:51.254Z,88056.00
2022-12-23T23:25:51.260Z,88050.00
2022-12-23T23:26:51.251Z,88044.00
2022-12-23T23:27:51.258Z,88040.00
2022-12-23T23:28:51.209Z,88032.00
2022-12-23T23:29:51.202Z,88030.00
2022-12-23T23:31:09.713Z,88026.00
2022-12-23T23:31:52.266Z,88026.00
2022-12-23T23:32:51.166Z,88024.00
2022-12-23T23:33:51.172Z,88024.00
2022-12-23T23:34:51.136Z,88028.00
2022-12-23T23:35:51.132Z,88026.00
2022-12-23T23:36:51.193Z,88026.00
2022-12-23T23:37:51.117Z,88028.00
2022-12-23T23:38:51.106Z,88024.00
2022-12-23T23:39:51.130Z,88013.00
2022-12-23T23:40:51.205Z,88016.00
2022-12-23T23:41:51.098Z,88022.00
2022-12-23T23:42:51.102Z,88020.00
2022-12-23T23:43:51.125Z,88024.00
2022-12-23T23:44:51.061Z,88028.00
2022-12-23T23:45:51.125Z,88028.00
2022-12-23T23:46:51.035Z,88034.00
2022-12-23T23:47:51.038Z,88040.00
2022-12-23T23:48:51.023Z,88040.00
2022-12-23T23:49:51.012Z,88038.00
2022-12-23T23:50:50.995Z,88036.00
2022-12-23T23:51:50.986Z,88042.00
2022-12-23T23:52:50.993Z,88046.00
2022-12-23T23:53:50.957Z,88048.00
2022-12-23T23:54:50.954Z,88052.00
2022-12-23T23:55:50.946Z,88056.00
2022-12-23T23:56:50.955Z,88060.00
2022-12-23T23:57:50.933Z,88060.00
2022-12-23T23:58:50.893Z,88054.00
2022-12-23T23:59:50.883Z,88050.00
